Susan Ann — WCY5700 — position and weather

sailwx.info

Track history (hours):
 
Tides and Currents Weather Stations Pressure Air Temp Water Temp Dewpoint Dewpoint Depression Visibility Wind Speed Wind Dir Waves Ship Positions

Susan Ann

Owner: CROSS SOUND FERRY SERVICES INC, NEW LONDON, CT. More information available from US FCC via Universal Licensing System and Coast Guard Vessel Documentation Center.

Last reported at 2017-Dec-11 17:00 UTC. Time now 2017-Dec-12 14:21 UTC.
Position N 41°12' W 072°13'.

Length 72 m; draft 4 m.

Type: Passenger vessel. MMSI: 367354350.

Date/timePositionNaut miles runAvg speedWind from/ knotsBaromVisibWave heightAir tempDewpointWater temp
2017-Dec-11 17:00N 41°12' W 072°13'4 1.5
2017-Dec-11 14:36N 41°14' W 072°09'215.1
2017-Dec-11 14:27N 41°12' W 072°11'3 2.4
2017-Dec-11 13:12N 41°10' W 072°13'210.2
2017-Dec-11 13:00N 41°12' W 072°12'611.5
2017-Dec-11 12:30N 41°16' W 072°07'1 0.1
2017-Dec-11 00:53N 41°17' W 072°06'614.5
2017-Dec-11 00:30N 41°13' W 072°11'3 2.1
2017-Dec-10 23:09N 41°11' W 072°14'212.1
2017-Dec-10 23:00N 41°12' W 072°13'7 3.3
2017-Dec-10 20:59N 41°17' W 072°06'612.4
2017-Dec-10 20:30N 41°13' W 072°11'3 2.7
2017-Dec-10 19:12N 41°09' W 072°13'210.0
2017-Dec-10 19:00N 41°11' W 072°13'8 3.6
2017-Dec-10 16:52N 41°17' W 072°06'513.3
2017-Dec-10 16:30N 41°13' W 072°11'5 3.8
2017-Dec-10 15:17N 41°09' W 072°14'311.5
2017-Dec-10 15:00N 41°12' W 072°12'6 2.6
2017-Dec-10 12:47N 41°16' W 072°06'514.9
2017-Dec-10 12:28N 41°12' W 072°11'3 0.2
2017-Dec-10 01:08N 41°10' W 072°14'212.1
2017-Dec-10 00:59N 41°12' W 072°12'612.0
2017-Dec-10 00:30N 41°16' W 072°07'1 0.4
2017-Dec-09 22:46N 41°15' W 072°07'414.4
2017-Dec-09 22:28N 41°12' W 072°11'2 1.6
2017-Dec-09 21:01N 41°11' W 072°14'113.2
2017-Dec-09 20:56N 41°12' W 072°13'7 3.5
2017-Dec-09 18:58N 41°16' W 072°06'511.8
2017-Dec-09 18:30N 41°12' W 072°11'3 2.5
2017-Dec-09 17:07N 41°09' W 072°13'1 9.8
2017-Dec-09 17:00N 41°10' W 072°13'714.4
2017-Dec-09 16:30N 41°16' W 072°07'1 0.5
2017-Dec-09 14:49N 41°15' W 072°07'413.5
2017-Dec-09 14:29N 41°12' W 072°11'4 2.7
2017-Dec-09 13:12N 41°09' W 072°13'211.6
2017-Dec-09 13:00N 41°12' W 072°13'612.1
2017-Dec-09 12:30N 41°16' W 072°07'1 0.1
2017-Dec-09 00:53N 41°17' W 072°06'614.5
2017-Dec-09 00:29N 41°12' W 072°11'3 2.7
2017-Dec-08 23:12N 41°09' W 072°13'312.4
2017-Dec-08 23:00N 41°12' W 072°13'7 3.3
2017-Dec-08 20:53N 41°17' W 072°06'614.0
2017-Dec-08 20:27N 41°12' W 072°11'2 1.7
2017-Dec-08 19:07N 41°10' W 072°13'211.7
2017-Dec-08 18:56N 41°12' W 072°12'5 2.3
2017-Dec-08 16:49N 41°16' W 072°08'7 3.9
2017-Dec-08 15:03N 41°10' W 072°13'111.6
2017-Dec-08 15:00N 41°11' W 072°13'8 4.0
2017-Dec-08 12:54N 41°17' W 072°06'613.8
2017-Dec-08 12:30N 41°13' W 072°11'3 0.3
2017-Dec-08 01:11N 41°10' W 072°13'210.9
2017-Dec-08 01:00N 41°12' W 072°13'6 2.6
2017-Dec-07 22:45N 41°15' W 072°06'415.4
2017-Dec-07 22:29N 41°13' W 072°10'4 2.8
2017-Dec-07 21:14N 41°10' W 072°13'210.1
2017-Dec-07 21:00N 41°12' W 072°12'6 3.1
2017-Dec-07 18:56N 41°17' W 072°06'613.2
2017-Dec-07 18:29N 41°12' W 072°11'3 2.4
2017-Dec-07 17:11N 41°10' W 072°13'210.8
2017-Dec-07 16:58N 41°12' W 072°13'6 2.8
2017-Dec-07 14:54N 41°16' W 072°07'510.9
2017-Dec-07 14:29N 41°12' W 072°11'3 1.9
2017-Dec-07 13:09N 41°10' W 072°13'211.2
2017-Dec-07 13:00N 41°12' W 072°13'612.7
2017-Dec-07 12:30N 41°16' W 072°07'1 0.1
2017-Dec-07 00:52N 41°17' W 072°06'614.2
2017-Dec-07 00:28N 41°13' W 072°11'3 2.1
2017-Dec-06 23:07N 41°11' W 072°14'211.6
2017-Dec-06 22:56N 41°12' W 072°12'4 2.0
2017-Dec-06 20:43N 41°15' W 072°07'  
2017-Dec-04 01:54N 41°09' W 072°14'512.2
2017-Dec-04 01:30N 41°13' W 072°11'5 2.9
2017-Dec-03 23:56N 41°16' W 072°07'512.0
2017-Dec-03 23:30N 41°13' W 072°11'4 3.1
2017-Dec-03 22:13N 41°09' W 072°14'311.3
2017-Dec-03 21:56N 41°12' W 072°13'612.9
2017-Dec-03 21:30N 41°16' W 072°07'1 0.4
2017-Dec-03 19:45N 41°15' W 072°07'415.2
2017-Dec-03 19:30N 41°13' W 072°11'4 3.2
2017-Dec-03 18:14N 41°09' W 072°13'311.0
2017-Dec-03 18:00N 41°12' W 072°12'611.3
2017-Dec-03 17:28N 41°16' W 072°07'1 0.7
2017-Dec-03 15:56N 41°17' W 072°06'613.6
2017-Dec-03 15:29N 41°13' W 072°11'3 2.5
2017-Dec-03 14:08N 41°09' W 072°13'211.4
2017-Dec-03 14:00N 41°11' W 072°13'714.4
2017-Dec-03 13:30N 41°16' W 072°07'1 0.0
2017-Dec-03 00:58N 41°17' W 072°06'612.3
2017-Dec-03 00:29N 41°12' W 072°11'4 2.8
2017-Dec-02 23:09N 41°09' W 072°14'1 8.9
2017-Dec-02 23:00N 41°10' W 072°14'814.2
2017-Dec-02 22:28N 41°16' W 072°07'2 1.7
2017-Dec-02 21:03N 41°18' W 072°05'112.8
2017-Dec-02 20:56N 41°17' W 072°06'613.7
2017-Dec-02 20:30N 41°12' W 072°11'4 3.1
2017-Dec-02 19:17N 41°09' W 072°14'311.1
2017-Dec-02 18:58N 41°12' W 072°12'6 2.6
2017-Dec-02 16:50N 41°15' W 072°06'515.3
2017-Dec-02 16:29N 41°12' W 072°12'2 1.5
2017-Dec-02 15:08N 41°11' W 072°14'212.2
2017-Dec-02 15:00N 41°12' W 072°12'7 3.2
2017-Dec-02 12:57N 41°17' W 072°06'511.9
2017-Dec-02 12:30N 41°13' W 072°11'4 0.3
2017-Dec-02 01:11N 41°09' W 072°13'211.6
2017-Dec-02 01:00N 41°12' W 072°14'8 3.7
2017-Dec-01 22:58N 41°17' W 072°06'612.3
2017-Dec-01 22:30N 41°12' W 072°11'  
Track history (hours):
 
Tides and Currents Weather Stations Pressure Air Temp Water Temp Dewpoint Dewpoint Depression Visibility Wind Speed Wind Dir Waves Ship Positions

Susan Ann

Owner: CROSS SOUND FERRY SERVICES INC, NEW LONDON, CT. More information available from US FCC via Universal Licensing System and Coast Guard Vessel Documentation Center.

Last reported at 2017-Dec-11 17:00 UTC. Time now 2017-Dec-12 14:21 UTC.
Position N 41°12' W 072°13'.

Length 72 m; draft 4 m.

Type: Passenger vessel. MMSI: 367354350.

Date/timePositionNaut miles runAvg speedWind from/ knotsBaromVisibWave heightAir tempDewpointWater temp
2017-Dec-11 17:00N 41°12' W 072°13'4 1.5
2017-Dec-11 14:36N 41°14' W 072°09'215.1
2017-Dec-11 14:27N 41°12' W 072°11'3 2.4
2017-Dec-11 13:12N 41°10' W 072°13'210.2
2017-Dec-11 13:00N 41°12' W 072°12'611.5
2017-Dec-11 12:30N 41°16' W 072°07'1 0.1
2017-Dec-11 00:53N 41°17' W 072°06'614.5
2017-Dec-11 00:30N 41°13' W 072°11'3 2.1
2017-Dec-10 23:09N 41°11' W 072°14'212.1
2017-Dec-10 23:00N 41°12' W 072°13'7 3.3
2017-Dec-10 20:59N 41°17' W 072°06'612.4
2017-Dec-10 20:30N 41°13' W 072°11'3 2.7
2017-Dec-10 19:12N 41°09' W 072°13'210.0
2017-Dec-10 19:00N 41°11' W 072°13'8 3.6
2017-Dec-10 16:52N 41°17' W 072°06'513.3
2017-Dec-10 16:30N 41°13' W 072°11'5 3.8
2017-Dec-10 15:17N 41°09' W 072°14'311.5
2017-Dec-10 15:00N 41°12' W 072°12'6 2.6
2017-Dec-10 12:47N 41°16' W 072°06'514.9
2017-Dec-10 12:28N 41°12' W 072°11'3 0.2
2017-Dec-10 01:08N 41°10' W 072°14'212.1
2017-Dec-10 00:59N 41°12' W 072°12'612.0
2017-Dec-10 00:30N 41°16' W 072°07'1 0.4
2017-Dec-09 22:46N 41°15' W 072°07'414.4
2017-Dec-09 22:28N 41°12' W 072°11'2 1.6
2017-Dec-09 21:01N 41°11' W 072°14'113.2
2017-Dec-09 20:56N 41°12' W 072°13'7 3.5
2017-Dec-09 18:58N 41°16' W 072°06'511.8
2017-Dec-09 18:30N 41°12' W 072°11'3 2.5
2017-Dec-09 17:07N 41°09' W 072°13'1 9.8
2017-Dec-09 17:00N 41°10' W 072°13'714.4
2017-Dec-09 16:30N 41°16' W 072°07'1 0.5
2017-Dec-09 14:49N 41°15' W 072°07'413.5
2017-Dec-09 14:29N 41°12' W 072°11'4 2.7
2017-Dec-09 13:12N 41°09' W 072°13'211.6
2017-Dec-09 13:00N 41°12' W 072°13'612.1
2017-Dec-09 12:30N 41°16' W 072°07'1 0.1
2017-Dec-09 00:53N 41°17' W 072°06'614.5
2017-Dec-09 00:29N 41°12' W 072°11'3 2.7
2017-Dec-08 23:12N 41°09' W 072°13'312.4
2017-Dec-08 23:00N 41°12' W 072°13'7 3.3
2017-Dec-08 20:53N 41°17' W 072°06'614.0
2017-Dec-08 20:27N 41°12' W 072°11'2 1.7
2017-Dec-08 19:07N 41°10' W 072°13'211.7
2017-Dec-08 18:56N 41°12' W 072°12'5 2.3
2017-Dec-08 16:49N 41°16' W 072°08'7 3.9
2017-Dec-08 15:03N 41°10' W 072°13'111.6
2017-Dec-08 15:00N 41°11' W 072°13'8 4.0
2017-Dec-08 12:54N 41°17' W 072°06'613.8
2017-Dec-08 12:30N 41°13' W 072°11'3 0.3
2017-Dec-08 01:11N 41°10' W 072°13'210.9
2017-Dec-08 01:00N 41°12' W 072°13'6 2.6
2017-Dec-07 22:45N 41°15' W 072°06'415.4
2017-Dec-07 22:29N 41°13' W 072°10'4 2.8
2017-Dec-07 21:14N 41°10' W 072°13'210.1
2017-Dec-07 21:00N 41°12' W 072°12'6 3.1
2017-Dec-07 18:56N 41°17' W 072°06'613.2
2017-Dec-07 18:29N 41°12' W 072°11'3 2.4
2017-Dec-07 17:11N 41°10' W 072°13'210.8
2017-Dec-07 16:58N 41°12' W 072°13'6 2.8
2017-Dec-07 14:54N 41°16' W 072°07'510.9
2017-Dec-07 14:29N 41°12' W 072°11'3 1.9
2017-Dec-07 13:09N 41°10' W 072°13'211.2
2017-Dec-07 13:00N 41°12' W 072°13'612.7
2017-Dec-07 12:30N 41°16' W 072°07'1 0.1
2017-Dec-07 00:52N 41°17' W 072°06'614.2
2017-Dec-07 00:28N 41°13' W 072°11'3 2.1
2017-Dec-06 23:07N 41°11' W 072°14'211.6
2017-Dec-06 22:56N 41°12' W 072°12'4 2.0
2017-Dec-06 20:43N 41°15' W 072°07'  
2017-Dec-04 01:54N 41°09' W 072°14'512.2
2017-Dec-04 01:30N 41°13' W 072°11'5 2.9
2017-Dec-03 23:56N 41°16' W 072°07'512.0
2017-Dec-03 23:30N 41°13' W 072°11'4 3.1
2017-Dec-03 22:13N 41°09' W 072°14'311.3
2017-Dec-03 21:56N 41°12' W 072°13'612.9
2017-Dec-03 21:30N 41°16' W 072°07'1 0.4
2017-Dec-03 19:45N 41°15' W 072°07'415.2
2017-Dec-03 19:30N 41°13' W 072°11'4 3.2
2017-Dec-03 18:14N 41°09' W 072°13'311.0
2017-Dec-03 18:00N 41°12' W 072°12'611.3
2017-Dec-03 17:28N 41°16' W 072°07'1 0.7
2017-Dec-03 15:56N 41°17' W 072°06'613.6
2017-Dec-03 15:29N 41°13' W 072°11'3 2.5
2017-Dec-03 14:08N 41°09' W 072°13'211.4
2017-Dec-03 14:00N 41°11' W 072°13'714.4
2017-Dec-03 13:30N 41°16' W 072°07'1 0.0
2017-Dec-03 00:58N 41°17' W 072°06'612.3
2017-Dec-03 00:29N 41°12' W 072°11'4 2.8
2017-Dec-02 23:09N 41°09' W 072°14'1 8.9
2017-Dec-02 23:00N 41°10' W 072°14'814.2
2017-Dec-02 22:28N 41°16' W 072°07'2 1.7
2017-Dec-02 21:03N 41°18' W 072°05'112.8
2017-Dec-02 20:56N 41°17' W 072°06'613.7
2017-Dec-02 20:30N 41°12' W 072°11'4 3.1
2017-Dec-02 19:17N 41°09' W 072°14'311.1
2017-Dec-02 18:58N 41°12' W 072°12'6 2.6
2017-Dec-02 16:50N 41°15' W 072°06'515.3
2017-Dec-02 16:29N 41°12' W 072°12'2 1.5
2017-Dec-02 15:08N 41°11' W 072°14'212.2
2017-Dec-02 15:00N 41°12' W 072°12'7 3.2
2017-Dec-02 12:57N 41°17' W 072°06'511.9
2017-Dec-02 12:30N 41°13' W 072°11'4 0.3
2017-Dec-02 01:11N 41°09' W 072°13'211.6
2017-Dec-02 01:00N 41°12' W 072°14'8 3.7
2017-Dec-01 22:58N 41°17' W 072°06'612.3
2017-Dec-01 22:30N 41°12' W 072°11'  

Dump ship's entire track history